Time;durP1;ratioP1;P1;durP2;ratioP2;P2;SDS_P1;SDS_P2;PMS_P1;PMS_P2;Temp;Humidity;BMP_temperature;BMP_pressure;BME280_temperature;BME280_humidity;BME280_pressure;Samples;Min_cycle;Max_cycle;Signal;HPM_P1;HPM_P2
2022/11/24 00:02:05;;;;;;;11.23;4.22;;;;;;;17.69;63.65;99446.75;4994459;28;20018;-69
2022/11/24 00:04:30;;;;;;;10.40;3.47;;;;;;;17.69;63.67;99444.94;4994101;28;20026;-71
2022/11/24 00:06:56;;;;;;;11.00;4.22;;;;;;;17.66;63.46;99442.47;4993178;28;20037;-70
2022/11/24 00:09:21;;;;;;;10.05;4.57;;;;;;;17.64;63.56;99446.97;4992813;28;20474;-71
2022/11/24 00:11:47;;;;;;;11.00;3.90;;;;;;;17.64;63.86;99446.97;4992847;28;20040;-70
2022/11/24 00:14:12;;;;;;;9.80;3.88;;;;;;;17.65;63.80;99442.53;4993392;28;20488;-69
2022/11/24 00:16:38;;;;;;;10.65;4.10;;;;;;;17.63;63.59;99447.88;4992034;28;20105;-71
2022/11/24 00:19:07;;;;;;;9.05;4.03;;;;;;;17.64;63.50;99446.97;4993409;28;20033;-70
2022/11/24 00:21:34;;;;;;;11.48;4.28;;;;;;;17.62;63.52;99450.59;4991958;28;20128;-69
2022/11/24 00:24:00;;;;;;;8.35;3.83;;;;;;;17.62;63.48;99448.81;4993458;28;20058;-71
2022/11/24 00:26:28;;;;;;;8.55;3.65;;;;;;;17.61;63.82;99436.53;4992088;28;20418;-71
2022/11/24 00:28:57;;;;;;;8.75;3.97;;;;;;;17.58;63.88;99434.91;4992572;28;20019;-70
2022/11/24 00:31:24;;;;;;;10.15;3.78;;;;;;;17.61;63.61;99436.53;4993234;28;20022;-71
2022/11/24 00:33:53;;;;;;;10.57;3.50;;;;;;;17.61;63.68;99439.19;4992579;28;20025;-70
2022/11/24 00:36:19;;;;;;;9.90;3.90;;;;;;;17.60;63.48;99434.84;4990950;28;20046;-70
2022/11/24 00:38:45;;;;;;;9.68;3.58;;;;;;;17.61;63.42;99439.19;4991909;28;20497;-69
2022/11/24 00:41:11;;;;;;;10.95;3.92;;;;;;;17.58;63.38;99434.91;4991371;28;20019;-71
2022/11/24 00:43:37;;;;;;;8.38;3.58;;;;;;;17.62;63.72;99434.78;4991675;28;20022;-70
2022/11/24 00:46:02;;;;;;;10.50;3.70;;;;;;;17.59;63.75;99435.78;4992895;28;20552;-70
2022/11/24 00:48:29;;;;;;;11.00;4.22;;;;;;;17.59;63.73;99430.50;4990733;28;20057;-70
2022/11/24 00:50:59;;;;;;;9.82;3.55;;;;;;;17.59;63.65;99430.50;4990893;28;20030;-70
2022/11/24 00:53:25;;;;;;;9.45;3.65;;;;;;;17.56;63.77;99436.78;4992451;28;20026;-70
2022/11/24 00:55:51;;;;;;;8.77;3.90;;;;;;;17.58;63.59;99431.44;4991472;28;20888;-70
2022/11/24 00:58:17;;;;;;;9.15;3.80;;;;;;;17.58;63.56;99439.34;4993094;28;20046;-71
2022/11/24 01:00:43;;;;;;;9.00;3.65;;;;;;;17.56;63.71;99441.19;4992598;28;20427;-71
2022/11/24 01:03:08;;;;;;;8.38;3.75;;;;;;;17.56;63.78;99449.09;4992372;28;20019;-70
2022/11/24 01:05:37;;;;;;;9.30;3.38;;;;;;;17.58;63.59;99444.63;4991416;28;20509;-69
2022/11/24 01:08:03;;;;;;;8.57;3.38;;;;;;;17.56;63.46;99451.72;4991955;28;20030;-71
2022/11/24 01:10:29;;;;;;;9.32;3.45;;;;;;;17.56;63.50;99441.19;4992139;28;20022;-71
2022/11/24 01:12:54;;;;;;;9.73;3.97;;;;;;;17.56;63.44;99443.81;4992678;28;20486;-71
2022/11/24 01:15:20;;;;;;;7.78;3.22;;;;;;;17.55;63.52;99442.97;4992368;28;20049;-70
2022/11/24 01:17:45;;;;;;;8.20;3.63;;;;;;;17.55;63.54;99434.19;4990828;28;20031;-70
2022/11/24 01:20:11;;;;;;;7.05;3.22;;;;;;;17.53;63.78;99436.91;4991653;28;20029;-70
2022/11/24 01:22:37;;;;;;;7.32;3.35;;;;;;;17.55;63.37;99442.13;4991312;28;20117;-69
2022/11/24 01:25:05;;;;;;;8.02;3.67;;;;;;;17.54;63.60;99437.78;4990116;28;20089;-71
2022/11/24 01:27:31;;;;;;;8.15;3.40;;;;;;;17.58;63.52;99442.00;4991444;28;20022;-71
2022/11/24 01:29:56;;;;;;;6.68;3.08;;;;;;;17.56;63.44;99441.19;4991485;28;20031;-69
2022/11/24 01:32:22;;;;;;;7.63;2.90;;;;;;;17.55;63.40;99439.47;4990085;28;20026;-71
2022/11/24 01:34:48;;;;;;;7.80;3.33;;;;;;;17.56;63.42;99436.78;4991623;28;20072;-71
2022/11/24 01:37:13;;;;;;;8.20;3.35;;;;;;;17.57;63.30;99456.06;4991339;28;20026;-71
2022/11/24 01:39:39;;;;;;;10.52;3.50;;;;;;;17.56;63.46;99451.72;4991151;28;20022;-70
2022/11/24 01:42:05;;;;;;;7.28;3.30;;;;;;;17.55;63.50;99450.03;4992166;28;20022;-71
2022/11/24 01:44:30;;;;;;;8.93;3.13;;;;;;;17.55;63.35;99450.03;4990782;28;20033;-70
2022/11/24 01:47:11;;;;;;;9.45;3.47;;;;;;;17.51;63.49;99451.97;4991991;28;20521;-70
2022/11/24 01:49:40;;;;;;;7.80;3.30;;;;;;;17.53;63.56;99451.91;4987794;28;20025;-72
2022/11/24 01:52:17;;;;;;;8.50;3.80;;;;;;;17.54;63.40;99448.31;4991544;28;20034;-71
2022/11/24 01:54:50;;;;;;;7.18;2.88;;;;;;;17.54;63.01;99448.31;4999262;28;20058;-69
2022/11/24 01:57:25;;;;;;;8.05;3.30;;;;;;;17.51;63.54;99445.81;4990828;28;20520;-70
2022/11/24 01:59:56;;;;;;;8.77;2.88;;;;;;;17.53;63.20;99446.63;4990707;28;20026;-71
2022/11/24 02:02:23;;;;;;;9.48;3.00;;;;;;;17.55;63.13;99457.94;4990626;28;20521;-70
2022/11/24 02:04:49;;;;;;;11.43;3.42;;;;;;;17.52;63.32;99456.31;4991186;28;20065;-70
2022/11/24 02:07:15;;;;;;;9.02;3.05;;;;;;;17.53;62.87;99450.09;4990117;28;20482;-69
2022/11/24 02:09:51;;;;;;;7.72;3.03;;;;;;;17.55;62.77;99436.84;4991019;28;20068;-70
2022/11/24 02:12:17;;;;;;;;;;;;;;;17.53;63.33;99441.34;4990233;28;20023;-70
2022/11/24 02:14:43;;;;;;;7.60;2.83;;;;;;;17.51;63.11;99446.69;4990916;28;19914;-72
2022/11/24 02:17:09;;;;;;;7.75;3.10;;;;;;;17.52;63.01;99450.16;4991230;28;20022;-71
2022/11/24 02:19:52;;;;;;;6.35;2.58;;;;;;;17.51;63.21;99438.75;4989958;28;20030;-71
2022/11/24 02:22:17;;;;;;;7.70;3.15;;;;;;;17.52;63.06;99434.31;4989776;28;20224;-70
2022/11/24 02:24:51;;;;;;;8.18;3.00;;;;;;;17.53;63.10;99436.91;4990858;28;20125;-69
2022/11/24 02:27:18;;;;;;;6.75;2.60;;;;;;;17.50;62.90;99433.56;4989579;28;20296;-70
2022/11/24 02:29:43;;;;;;;5.97;2.67;;;;;;;17.52;62.98;99442.25;4990221;28;20049;-70
2022/11/24 02:32:10;;;;;;;10.02;2.95;;;;;;;17.47;62.93;99439.81;4989286;28;20026;-69
2022/11/24 02:34:35;;;;;;;7.28;2.65;;;;;;;17.47;63.00;99442.47;4989915;28;20053;-70
2022/11/24 02:37:01;;;;;;;7.35;3.00;;;;;;;17.46;62.96;99451.31;4988981;28;20034;-71
2022/11/24 02:39:26;;;;;;;6.97;3.03;;;;;;;17.43;63.29;99457.59;4989208;28;20050;-70
2022/11/24 02:42:00;;;;;;;4.75;2.22;;;;;;;17.45;63.13;99458.34;4990135;28;20502;-71
2022/11/24 02:44:31;;;;;;;5.57;2.60;;;;;;;17.43;63.13;99470.78;4990322;28;20026;-71
2022/11/24 02:47:09;;;;;;;5.90;2.85;;;;;;;17.43;63.24;99457.59;4988673;28;20034;-71
2022/11/24 02:49:35;;;;;;;8.70;3.38;;;;;;;17.42;63.21;99461.16;4989786;28;20579;-71
2022/11/24 02:52:00;;;;;;;7.03;2.45;;;;;;;17.42;63.12;99455.88;4989360;28;20057;-69
2022/11/24 02:54:26;;;;;;;6.82;2.25;;;;;;;17.43;63.21;99454.94;4990350;28;20042;-72
2022/11/24 02:56:51;;;;;;;7.85;3.05;;;;;;;17.39;63.02;99458.63;4990849;28;20022;-71
2022/11/24 02:59:17;;;;;;;8.23;2.92;;;;;;;17.40;63.04;99478.84;4989732;28;20084;-70
2022/11/24 03:01:42;;;;;;;6.85;2.63;;;;;;;17.40;63.22;99476.22;4989205;28;20057;-70
2022/11/24 03:04:08;;;;;;;5.68;2.30;;;;;;;17.39;62.92;99477.09;4990684;28;20053;-70
2022/11/24 03:06:33;;;;;;;6.40;2.58;;;;;;;17.42;62.97;99476.97;4990155;28;20019;-69
2022/11/24 03:08:59;;;;;;;5.55;2.33;;;;;;;17.39;63.01;99469.19;4990511;28;20076;-70
2022/11/24 03:11:24;;;;;;;6.13;2.70;;;;;;;17.40;63.22;99463.03;4988733;28;20393;-70
2022/11/24 03:13:50;;;;;;;6.25;2.50;;;;;;;17.39;63.00;99461.28;4988451;28;20113;-69
2022/11/24 03:16:15;;;;;;;5.50;2.33;;;;;;;17.39;63.30;99465.72;4990229;28;20030;-70
2022/11/24 03:18:41;;;;;;;6.28;2.53;;;;;;;17.39;63.02;99466.56;4989525;28;20462;-69
2022/11/24 03:21:06;;;;;;;6.95;2.70;;;;;;;17.38;63.24;99459.56;4990246;28;20038;-71
2022/11/24 03:23:31;;;;;;;7.53;2.55;;;;;;;17.37;63.03;99457.88;4988778;28;20648;-69
2022/11/24 03:26:07;;;;;;;6.03;2.40;;;;;;;17.37;63.22;99468.41;4988745;28;20061;-70
2022/11/24 03:28:33;;;;;;;6.95;2.75;;;;;;;17.36;63.09;99469.34;4989245;28;20023;-69
2022/11/24 03:30:58;;;;;;;7.50;2.72;;;;;;;17.36;62.86;99472.00;4988451;28;20395;-68
2022/11/24 03:33:23;;;;;;;7.15;2.40;;;;;;;17.37;62.84;99468.41;4989046;28;20031;-70
2022/11/24 03:35:49;;;;;;;6.15;2.17;;;;;;;17.37;62.92;99464.91;4988425;28;20118;-69
2022/11/24 03:38:14;;;;;;;5.88;2.30;;;;;;;17.38;63.06;99470.13;4988943;28;20042;-69
2022/11/24 03:40:40;;;;;;;6.65;2.60;;;;;;;17.38;62.91;99459.56;4988549;28;20101;-69
2022/11/24 03:43:05;;;;;;;6.95;2.90;;;;;;;17.39;62.66;99453.38;4990534;28;20380;-69
2022/11/24 03:45:30;;;;;;;8.13;2.47;;;;;;;17.39;62.83;99463.91;4990420;28;20041;-70
2022/11/24 03:47:56;;;;;;;6.53;2.30;;;;;;;17.38;62.52;99464.84;4989890;28;20057;-71
2022/11/24 03:50:21;;;;;;;6.78;2.30;;;;;;;17.38;62.74;99464.84;4988638;28;20042;-71
2022/11/24 03:52:47;;;;;;;6.15;2.20;;;;;;;17.38;62.75;99470.13;4988580;28;20022;-70
2022/11/24 03:55:12;;;;;;;6.80;2.40;;;;;;;17.37;62.80;99472.81;4989733;28;20034;-68
2022/11/24 03:57:37;;;;;;;6.85;2.53;;;;;;;17.34;62.62;99462.44;4988627;28;20138;-70
2022/11/24 04:00:05;;;;;;;5.28;2.05;;;;;;;17.34;62.56;99463.28;4987283;28;20026;-70
2022/11/24 04:02:30;;;;;;;5.82;2.30;;;;;;;17.35;62.52;99458.88;4989492;28;20054;-71
2022/11/24 04:04:56;;;;;;;6.90;2.53;;;;;;;17.31;62.50;99453.75;4989732;28;20125;-70
2022/11/24 04:07:21;;;;;;;5.18;2.20;;;;;;;17.35;62.67;99459.72;4989796;28;20026;-70
2022/11/24 04:09:47;;;;;;;6.65;2.70;;;;;;;17.31;62.61;99452.88;4989068;28;20041;-70
2022/11/24 04:14:56;;;;;;;6.22;2.20;;;;;;;17.31;62.36;99447.59;4987923;28;20077;-70
2022/11/24 04:17:21;;;;;;;8.77;2.53;;;;;;;17.31;62.64;99447.59;4989039;28;20050;-69
2022/11/24 04:19:47;;;;;;;6.88;2.38;;;;;;;17.33;62.62;99452.81;4987097;28;20098;-68
2022/11/24 04:22:12;;;;;;;5.10;2.03;;;;;;;17.32;62.58;99454.59;4989089;28;20045;-67
2022/11/24 04:24:37;;;;;;;5.68;2.78;;;;;;;17.30;62.65;99461.72;4988092;28;20097;-70
2022/11/24 04:27:03;;;;;;;7.38;2.25;;;;;;;17.29;62.43;99444.19;4992185;28;20417;-70
2022/11/24 04:29:28;;;;;;;5.70;1.88;;;;;;;17.31;62.52;99444.97;4993077;28;20034;-69
2022/11/24 04:31:53;;;;;;;9.05;2.63;;;;;;;17.29;62.25;99452.09;4992486;28;20097;-70
2022/11/24 04:34:19;;;;;;;6.30;2.15;;;;;;;17.28;62.59;99450.38;4993836;28;20032;-70
2022/11/24 04:36:44;;;;;;;5.20;2.20;;;;;;;17.28;62.24;99453.00;4991667;28;20026;-70
2022/11/24 04:39:10;;;;;;;5.13;2.15;;;;;;;17.27;62.26;99451.28;4992844;28;20025;-71
2022/11/24 04:41:35;;;;;;;6.07;2.25;;;;;;;17.29;62.25;99458.22;4991766;28;20054;-69
2022/11/24 04:44:00;;;;;;;4.72;1.80;;;;;;;17.26;62.16;99455.72;4992024;28;20026;-71
2022/11/24 04:46:26;;;;;;;5.97;2.17;;;;;;;17.28;62.39;99450.38;4992088;28;20073;-70
2022/11/24 04:48:51;;;;;;;5.55;2.00;;;;;;;17.25;62.25;99450.53;4992792;28;20026;-70
2022/11/24 04:51:17;;;;;;;5.75;1.88;;;;;;;17.26;62.53;99455.72;4993858;28;20485;-69
2022/11/24 04:53:42;;;;;;;4.18;2.05;;;;;;;17.26;62.40;99444.31;4991569;28;20050;-71
2022/11/24 04:56:08;;;;;;;5.10;2.00;;;;;;;17.25;62.35;99454.00;4991193;28;20010;-71
2022/11/24 04:58:34;;;;;;;6.90;2.25;;;;;;;17.26;62.23;99449.59;4991710;28;20080;-71
2022/11/24 05:00:59;;;;;;;8.48;2.53;;;;;;;17.26;62.25;99454.88;4991862;28;20034;-70
2022/11/24 05:03:25;;;;;;;5.95;1.83;;;;;;;17.27;62.26;99451.28;4992182;28;20023;-69
2022/11/24 05:05:50;;;;;;;4.85;1.80;;;;;;;17.23;62.09;99444.47;4993155;28;20023;-70
2022/11/24 05:08:15;;;;;;;5.07;1.73;;;;;;;17.23;62.49;99455.03;4991900;28;20018;-69
2022/11/24 05:10:41;;;;;;;4.78;1.80;;;;;;;17.25;62.27;99453.16;4990977;28;20018;-68
2022/11/24 05:13:12;;;;;;;4.95;1.80;;;;;;;17.24;62.38;99454.09;4991880;28;20018;-71
2022/11/24 05:15:39;;;;;;;5.38;1.90;;;;;;;17.24;62.13;99451.44;4992408;28;20023;-71
2022/11/24 05:18:10;;;;;;;5.82;2.10;;;;;;;17.20;62.15;99449.88;4993401;28;20482;-70
2022/11/24 05:20:36;;;;;;;5.30;2.00;;;;;;;17.21;62.38;99448.94;4992619;28;20125;-69
2022/11/24 05:23:06;;;;;;;3.17;1.50;;;;;;;17.21;62.30;99462.13;4991586;28;20141;-70
2022/11/24 05:25:35;;;;;;;5.03;1.95;;;;;;;17.22;62.06;99458.56;4991511;28;20076;-70
2022/11/24 05:28:02;;;;;;;4.15;1.80;;;;;;;17.20;62.23;99455.13;4990787;28;20414;-71
2022/11/24 05:30:29;;;;;;;6.03;2.17;;;;;;;17.22;62.58;99466.47;4993102;28;20034;-69
2022/11/24 05:32:54;;;;;;;5.55;1.98;;;;;;;17.17;62.33;99470.19;4990620;28;20482;-68
2022/11/24 05:35:20;;;;;;;4.70;2.00;;;;;;;17.15;62.33;99472.03;4991934;28;20022;-69
2022/11/24 05:37:46;;;;;;;6.15;2.00;;;;;;;17.16;62.33;99470.25;4990646;28;20022;-68
2022/11/24 05:40:12;;;;;;;6.90;2.00;;;;;;;17.15;62.20;99464.09;4989575;28;20026;-68
2022/11/24 05:42:41;;;;;;;5.75;2.20;;;;;;;17.18;62.25;99458.72;4994536;28;20026;-68
2022/11/24 05:45:17;;;;;;;6.07;1.95;;;;;;;17.18;62.10;99450.81;4994510;28;20038;-68
2022/11/24 05:47:43;;;;;;;5.00;1.88;;;;;;;17.15;62.22;99450.91;4994910;28;20486;-68
2022/11/24 05:50:10;;;;;;;6.38;2.30;;;;;;;17.12;62.45;99451.06;4994882;28;20065;-68
2022/11/24 05:52:36;;;;;;;5.20;2.58;;;;;;;17.10;62.13;99445.00;4994890;28;20105;-67
2022/11/24 05:55:03;;;;;;;7.15;2.40;;;;;;;17.06;62.02;99448.72;4994000;28;20177;-68
2022/11/24 05:57:28;;;;;;;6.40;2.35;;;;;;;17.06;62.40;99447.84;4994756;28;20035;-69
2022/11/24 05:59:54;;;;;;;6.60;2.33;;;;;;;17.09;62.99;99451.19;4991993;28;20053;-67
2022/11/24 06:02:19;;;;;;;9.10;2.72;;;;;;;17.05;64.35;99457.56;4989527;28;20101;-66
2022/11/24 06:04:45;;;;;;;11.20;2.50;;;;;;;17.08;65.14;99457.41;4990268;28;20421;-66
2022/11/24 06:07:11;;;;;;;11.73;2.95;;;;;;;17.08;65.15;99452.13;4987912;28;20031;-67
2022/11/24 06:09:38;;;;;;;11.52;3.00;;;;;;;17.09;65.47;99458.28;4990364;28;20030;-67
2022/11/24 06:12:08;;;;;;;12.18;3.63;;;;;;;17.11;65.95;99466.97;4984786;28;20030;-67
2022/11/24 06:14:33;;;;;;;9.23;3.10;;;;;;;17.10;66.18;99471.34;4989078;28;20054;-67
2022/11/24 06:16:59;;;;;;;11.23;3.55;;;;;;;17.10;65.90;99476.63;4989929;28;20054;-67
2022/11/24 06:19:24;;;;;;;7.90;2.70;;;;;;;17.12;65.69;99472.16;4988079;28;20034;-66
2022/11/24 06:21:50;;;;;;;10.95;3.20;;;;;;;17.08;65.77;99465.31;4993412;28;20113;-66
2022/11/24 06:24:15;;;;;;;8.55;2.97;;;;;;;17.12;65.69;99466.03;4989833;28;20065;-67
2022/11/24 06:26:41;;;;;;;10.15;2.72;;;;;;;17.09;65.78;99464.38;4991141;28;20031;-67
2022/11/24 06:29:06;;;;;;;9.77;2.83;;;;;;;17.07;65.75;99460.97;5000463;28;20027;-67
2022/11/24 06:31:32;;;;;;;9.27;2.45;;;;;;;17.08;65.74;99456.53;4985812;28;20398;-67
2022/11/24 06:33:58;;;;;;;9.38;3.00;;;;;;;17.08;65.49;99462.69;4990132;28;20030;-67
2022/11/24 06:36:24;;;;;;;11.38;3.10;;;;;;;17.08;65.16;99462.69;4992976;28;20026;-67
2022/11/24 06:38:50;;;;;;;7.75;2.30;;;;;;;17.07;65.09;99465.38;4990698;28;20303;-67
2022/11/24 06:41:15;;;;;;;6.65;2.15;;;;;;;17.07;64.81;99460.97;4990867;28;20446;-67
2022/11/24 06:43:41;;;;;;;9.57;2.80;;;;;;;17.04;64.90;99467.22;4992761;28;20109;-67
2022/11/24 06:46:07;;;;;;;10.63;2.97;;;;;;;17.03;64.92;99459.38;4992867;28;20038;-66
2022/11/24 06:48:32;;;;;;;7.47;2.47;;;;;;;17.06;65.14;99458.41;4992292;28;20093;-67
2022/11/24 06:50:59;;;;;;;7.68;2.40;;;;;;;17.04;65.32;99458.47;4992382;28;20402;-67
2022/11/24 06:53:25;;;;;;;7.70;2.60;;;;;;;17.06;65.00;99459.25;4993444;28;20046;-66
2022/11/24 06:55:50;;;;;;;7.45;2.22;;;;;;;17.08;64.80;99467.06;4993660;28;20069;-67
2022/11/24 06:58:16;;;;;;;6.63;2.88;;;;;;;17.07;64.34;99454.81;4993606;28;20030;-67
2022/11/24 07:00:41;;;;;;;5.78;2.05;;;;;;;17.04;64.32;99455.81;4993663;28;20463;-67
2022/11/24 07:03:14;;;;;;;6.72;2.38;;;;;;;17.01;63.79;99477.03;4993482;28;20034;-67
2022/11/24 07:05:40;;;;;;;7.43;2.50;;;;;;;17.02;63.69;99473.47;4993582;28;20490;-66
2022/11/24 07:08:05;;;;;;;6.20;2.25;;;;;;;16.98;63.37;99467.47;4993248;28;20068;-67
2022/11/24 07:10:30;;;;;;;5.72;2.22;;;;;;;16.96;63.54;99479.88;4992226;28;20398;-67
2022/11/24 07:12:56;;;;;;;6.15;2.35;;;;;;;16.96;63.29;99471.09;4993328;28;20037;-67
2022/11/24 07:15:21;;;;;;;6.05;2.15;;;;;;;16.94;63.04;99465.88;4993417;28;20073;-67
2022/11/24 07:17:46;;;;;;;5.03;2.25;;;;;;;16.92;62.96;99463.31;4993427;28;20110;-68
2022/11/24 07:20:12;;;;;;;7.25;2.42;;;;;;;16.95;62.68;99450.94;4993387;28;20026;-67
2022/11/24 07:22:37;;;;;;;7.30;2.50;;;;;;;16.90;62.96;99452.00;4992921;28;20104;-67
2022/11/24 07:25:06;;;;;;;6.68;2.15;;;;;;;16.88;62.96;99469.66;4993325;28;20065;-67
2022/11/24 07:27:32;;;;;;;7.03;1.92;;;;;;;16.85;62.98;99461.88;4993362;28;20033;-66
2022/11/24 07:29:58;;;;;;;6.78;2.40;;;;;;;16.84;62.85;99454.91;4993192;28;20494;-67
2022/11/24 07:32:23;;;;;;;8.20;2.35;;;;;;;16.85;62.78;99445.22;4993169;28;20073;-67
2022/11/24 07:34:48;;;;;;;6.40;2.30;;;;;;;16.82;62.80;99464.66;4993210;28;20085;-67
2022/11/24 07:37:14;;;;;;;6.28;2.10;;;;;;;16.82;62.62;99483.09;4991803;28;20066;-67
2022/11/24 07:39:39;;;;;;;4.65;1.77;;;;;;;16.82;62.86;99477.84;4993486;28;20041;-67
2022/11/24 07:42:05;;;;;;;4.82;1.98;;;;;;;16.81;62.78;99470.84;4993213;28;20061;-67
2022/11/24 07:44:31;;;;;;;6.55;2.40;;;;;;;16.81;62.78;99476.13;4993294;28;20069;-67
2022/11/24 07:46:56;;;;;;;6.07;2.53;;;;;;;16.83;62.56;99483.94;4993326;28;20502;-67
2022/11/24 07:49:21;;;;;;;7.03;2.85;;;;;;;16.81;62.87;99478.75;4993231;28;20037;-67
2022/11/24 07:51:47;;;;;;;6.00;2.20;;;;;;;16.76;62.54;99472.84;4992887;28;20541;-68
2022/11/24 07:54:13;;;;;;;6.18;2.30;;;;;;;16.74;62.61;99458.84;4993072;28;20030;-67
2022/11/24 07:56:38;;;;;;;6.70;2.25;;;;;;;16.71;62.76;99454.56;4993151;28;20026;-66
2022/11/24 07:59:03;;;;;;;4.93;2.45;;;;;;;16.69;62.46;99445.88;4993567;28;20037;-67
2022/11/24 08:01:29;;;;;;;7.03;2.80;;;;;;;16.71;62.57;99448.47;4996888;28;20026;-67
2022/11/24 08:03:54;;;;;;;6.45;2.67;;;;;;;16.70;62.59;99449.38;4996899;28;20085;-67
2022/11/24 08:06:20;;;;;;;6.93;2.30;;;;;;;16.68;62.42;99441.53;4996548;28;20022;-67
2022/11/24 08:08:46;;;;;;;8.23;3.05;;;;;;;16.66;62.19;99450.44;4996919;28;20385;-67
2022/11/24 08:11:14;;;;;;;5.47;2.50;;;;;;;16.64;62.50;99447.84;4996766;28;20523;-67
2022/11/24 08:13:40;;;;;;;9.10;2.70;;;;;;;16.64;62.64;99464.53;4996675;28;20018;-67
2022/11/24 08:16:11;;;;;;;5.95;2.80;;;;;;;16.66;62.71;99476.78;4995413;28;20033;-67
2022/11/24 08:18:37;;;;;;;5.78;2.30;;;;;;;16.70;62.79;99483.63;4996738;28;20022;-67
2022/11/24 08:21:03;;;;;;;6.32;2.60;;;;;;;16.71;62.45;99475.63;4996184;28;20038;-67
2022/11/24 08:23:29;;;;;;;6.00;2.25;;;;;;;16.70;62.72;99484.47;4996182;28;20050;-67
2022/11/24 08:25:56;;;;;;;6.60;2.63;;;;;;;16.68;62.59;99486.34;4996556;28;20487;-67
2022/11/24 08:28:22;;;;;;;6.97;2.70;;;;;;;16.66;62.76;99503.13;4996398;28;20092;-67
2022/11/24 08:30:48;;;;;;;6.25;2.55;;;;;;;16.65;62.52;99496.97;4996476;28;20101;-67
2022/11/24 08:33:13;;;;;;;6.70;2.40;;;;;;;16.66;62.36;99508.38;4996427;28;20120;-67
2022/11/24 08:35:38;;;;;;;5.50;2.53;;;;;;;16.67;62.62;99507.47;4995959;28;20505;-67
2022/11/24 08:38:05;;;;;;;7.78;2.70;;;;;;;16.68;62.48;99507.41;4996329;28;20109;-67
2022/11/24 08:40:31;;;;;;;6.03;2.20;;;;;;;16.68;62.23;99507.41;4996296;28;20034;-67
2022/11/24 08:43:00;;;;;;;9.32;2.58;;;;;;;16.69;62.62;99516.16;4996298;28;20107;-67
2022/11/24 08:45:26;;;;;;;6.40;2.55;;;;;;;16.70;62.59;99513.47;4996200;28;20034;-68
2022/11/24 08:47:53;;;;;;;5.15;2.10;;;;;;;16.68;62.41;99501.25;4996202;28;20038;-67
2022/11/24 08:50:19;;;;;;;5.22;2.45;;;;;;;16.59;62.33;99495.47;4995816;28;20065;-67
2022/11/24 08:52:45;;;;;;;5.53;2.40;;;;;;;16.62;62.28;99487.44;4996137;28;20022;-67
2022/11/24 08:55:10;;;;;;;6.05;2.53;;;;;;;16.62;62.43;99490.06;4996062;28;20550;-67
2022/11/24 08:57:36;;;;;;;5.88;2.38;;;;;;;16.64;62.35;99490.00;4995973;28;20031;-68
2022/11/24 09:00:05;;;;;;;4.55;2.53;;;;;;;16.64;62.19;99490.88;4995874;28;20028;-67
2022/11/24 09:02:31;;;;;;;6.90;2.70;;;;;;;16.63;62.19;99494.44;4995786;28;20118;-67
2022/11/24 09:04:56;;;;;;;6.57;3.08;;;;;;;16.60;62.22;99489.28;4995417;28;20097;-67
2022/11/24 09:07:22;;;;;;;6.97;3.00;;;;;;;16.59;62.10;99478.81;4995838;28;20550;-67
2022/11/24 09:09:48;;;;;;;5.97;2.75;;;;;;;16.58;62.33;99477.97;4995612;28;20077;-66
2022/11/24 09:12:13;;;;;;;6.25;2.40;;;;;;;16.56;62.20;99476.31;4994893;28;20030;-67
2022/11/24 09:14:39;;;;;;;6.65;2.95;;;;;;;16.55;62.32;99467.53;4995698;28;20539;-67
2022/11/24 09:17:04;;;;;;;5.40;2.45;;;;;;;16.56;62.29;99463.97;4995651;28;20025;-67
2022/11/24 09:19:29;;;;;;;7.28;2.38;;;;;;;16.54;62.18;99468.47;4995395;28;20390;-67
2022/11/24 09:21:55;;;;;;;7.95;2.90;;;;;;;16.55;62.10;99459.63;4995329;28;20111;-67
2022/11/24 09:24:20;;;;;;;7.22;2.90;;;;;;;16.50;62.52;99459.84;4995337;28;20042;-67
2022/11/24 09:26:46;;;;;;;6.40;2.67;;;;;;;16.53;62.44;99460.63;4995320;28;20026;-67
2022/11/24 09:29:12;;;;;;;5.45;2.92;;;;;;;16.50;62.29;99466.88;4995496;28;20030;-67
2022/11/24 09:31:38;;;;;;;7.20;2.60;;;;;;;16.53;62.29;99477.31;4995373;28;20065;-67
2022/11/24 09:34:06;;;;;;;5.75;2.63;;;;;;;16.51;62.10;99479.13;4995052;28;20040;-67
2022/11/24 09:36:32;;;;;;;6.35;3.00;;;;;;;16.49;62.28;99475.69;4995381;28;20797;-67
2022/11/24 09:38:58;;;;;;;5.72;2.80;;;;;;;16.46;62.35;99470.59;4995185;28;20474;-67
2022/11/24 09:41:51;;;;;;;5.93;2.72;;;;;;;16.44;62.15;99467.13;4995130;28;20112;-68
2022/11/24 09:44:41;;;;;;;6.15;2.65;;;;;;;16.44;62.49;99477.66;4995163;28;20031;-67
2022/11/24 09:47:15;;;;;;;7.82;2.90;;;;;;;16.43;62.31;99481.22;4993349;28;20398;-67
2022/11/24 09:49:46;;;;;;;6.60;3.15;;;;;;;16.42;62.54;99474.25;4994992;28;20466;-67
2022/11/24 09:52:15;;;;;;;6.38;3.00;;;;;;;16.45;62.43;99484.66;4994870;28;20031;-69
2022/11/24 09:54:51;;;;;;;7.80;3.05;;;;;;;16.45;62.19;99471.47;4993467;28;20030;-67
2022/11/24 09:57:20;;;;;;;7.13;3.13;;;;;;;16.43;62.53;99460.16;4994811;28;20442;-67
2022/11/24 09:59:46;;;;;;;7.25;3.22;;;;;;;16.43;62.43;99460.16;4994402;28;20038;-67
2022/11/24 10:02:13;;;;;;;9.38;3.47;;;;;;;16.42;62.26;99453.19;4994499;28;20041;-67
2022/11/24 10:04:43;;;;;;;6.35;3.22;;;;;;;16.41;62.46;99452.31;4994825;28;20080;-67
2022/11/24 10:07:18;;;;;;;8.73;3.00;;;;;;;16.44;62.30;99457.47;4994687;28;20474;-67
2022/11/24 10:10:26;;;;;;;6.60;3.22;;;;;;;16.44;62.38;99453.97;4994663;28;20042;-67
2022/11/24 10:13:23;;;;;;;8.98;3.10;;;;;;;16.44;62.41;99459.22;4984040;28;20054;-67
2022/11/24 10:16:08;;;;;;;6.65;3.00;;;;;;;16.42;62.11;99443.50;4993397;28;20498;-67
2022/11/24 10:18:41;;;;;;;8.55;3.90;;;;;;;16.40;62.21;99439.19;4994498;28;20018;-67
2022/11/24 10:21:13;;;;;;;10.48;3.85;;;;;;;16.41;62.00;99428.59;4994309;28;20433;-67
2022/11/24 10:23:54;;;;;;;8.48;3.92;;;;;;;16.44;62.31;99427.63;4992914;28;20050;-67
2022/11/24 10:26:36;;;;;;;7.13;3.63;;;;;;;16.41;62.12;99427.78;4994318;28;20041;-67
2022/11/24 10:29:41;;;;;;;9.70;3.60;;;;;;;16.42;62.11;99408.41;4993105;28;20066;-66
2022/11/24 10:32:16;;;;;;;8.38;4.20;;;;;;;16.41;62.12;99398.81;4991216;28;20121;-67
2022/11/24 10:34:48;;;;;;;7.10;3.90;;;;;;;16.37;62.13;99375.22;4994274;28;20032;-67
2022/11/24 10:37:14;;;;;;;9.10;4.03;;;;;;;16.37;62.18;99377.84;4994193;28;20483;-67
2022/11/24 10:40:08;;;;;;;8.23;4.13;;;;;;;16.41;61.90;99380.38;4993955;28;20042;-67
2022/11/24 10:42:39;;;;;;;10.75;4.43;;;;;;;16.38;62.21;99374.28;4933873;29;20083;-67
2022/11/24 10:45:24;;;;;;;8.75;3.30;;;;;;;16.38;62.04;99376.94;4933571;29;20070;-67
2022/11/24 10:47:49;;;;;;;6.75;3.53;;;;;;;16.42;62.00;99368.91;4933759;29;20445;-67
2022/11/24 10:50:18;;;;;;;8.88;3.63;;;;;;;16.40;62.31;99357.56;4933884;29;20242;-67
2022/11/24 10:53:22;;;;;;;8.30;3.78;;;;;;;16.40;62.23;99349.66;4933855;29;20038;-67
2022/11/24 10:55:53;;;;;;;7.43;3.08;;;;;;;16.44;62.38;99359.16;4933835;29;20042;-66
2022/11/24 10:58:22;;;;;;;8.45;3.47;;;;;;;16.42;62.25;99347.84;4933856;29;20043;-68
2022/11/24 11:00:49;;;;;;;9.07;3.53;;;;;;;16.46;62.44;99347.63;4933256;29;20044;-67
2022/11/24 11:03:25;;;;;;;8.35;3.65;;;;;;;16.46;62.53;99341.53;4933645;29;20111;-67
2022/11/24 11:06:18;;;;;;;10.07;3.78;;;;;;;16.48;62.34;99337.88;4933516;29;20526;-67
2022/11/24 11:08:43;;;;;;;7.28;3.20;;;;;;;16.50;62.00;99343.94;4933548;29;20035;-67
2022/11/24 11:11:26;;;;;;;7.90;3.40;;;;;;;16.47;62.48;99343.22;4933425;29;20456;-67
2022/11/24 11:14:27;;;;;;;8.13;2.95;;;;;;;16.50;62.24;99343.06;4917964;29;20143;-67
2022/11/24 11:16:54;;;;;;;9.65;3.58;;;;;;;16.46;62.35;99334.47;4933475;29;20042;-67
2022/11/24 11:19:32;;;;;;;8.52;3.75;;;;;;;16.47;62.09;99324.78;4963858;28;20069;-67
2022/11/24 11:22:00;;;;;;;8.43;3.42;;;;;;;16.49;62.14;99317.66;4993313;28;20046;-66
2022/11/24 11:24:27;;;;;;;7.43;2.90;;;;;;;16.47;62.12;99320.34;4993234;28;20042;-67
2022/11/24 11:27:01;;;;;;;7.45;3.17;;;;;;;16.49;62.17;99313.25;4993241;28;20046;-67
2022/11/24 11:29:28;;;;;;;7.13;3.20;;;;;;;16.47;61.93;99301.09;4992660;28;20019;-67
2022/11/24 11:32:03;;;;;;;7.93;3.42;;;;;;;16.49;61.74;99301.88;4993260;28;20034;-67
2022/11/24 11:34:35;;;;;;;6.97;3.15;;;;;;;16.49;62.06;99300.09;4992923;28;20029;-67
2022/11/24 11:37:02;;;;;;;9.38;3.70;;;;;;;16.47;62.13;99294.03;4991968;28;20474;-66
2022/11/24 11:39:30;;;;;;;8.50;3.08;;;;;;;16.50;62.05;99287.75;4993295;28;20018;-67